createdAt,value
2022-08-25T00:01:44.023Z,3.13
2022-08-25T00:04:13.882Z,7.63
2022-08-25T00:06:43.625Z,3.90
2022-08-25T00:09:12.996Z,2.80
2022-08-25T00:11:43.528Z,5.17
2022-08-25T00:14:13.288Z,3.13
2022-08-25T00:16:41.887Z,2.00
2022-08-25T00:19:12.140Z,0.97
2022-08-25T00:21:41.010Z,0.80
2022-08-25T00:24:09.973Z,4.50
2022-08-25T00:26:40.213Z,2.13
2022-08-25T00:29:10.186Z,1.73
2022-08-25T00:31:39.336Z,3.80
2022-08-25T00:34:09.572Z,3.57
2022-08-25T00:36:38.127Z,3.43
2022-08-25T00:39:06.560Z,3.17
2022-08-25T00:41:35.560Z,1.40
2022-08-25T00:44:05.407Z,0.40
2022-08-25T00:46:36.639Z,5.37
2022-08-25T00:49:06.565Z,1.03
2022-08-25T00:51:37.143Z,4.30
2022-08-25T00:54:06.428Z,1.03
2022-08-25T00:56:35.309Z,2.03
2022-08-25T00:59:04.933Z,5.17
2022-08-25T01:01:34.678Z,1.97
2022-08-25T01:04:02.995Z,4.37
2022-08-25T01:06:32.716Z,3.03
2022-08-25T01:09:01.180Z,2.87
2022-08-25T01:11:29.582Z,3.37
2022-08-25T01:13:59.071Z,5.80
2022-08-25T01:16:27.430Z,4.90
2022-08-25T01:18:59.289Z,4.90
2022-08-25T01:21:30.533Z,10.17
2022-08-25T01:24:00.261Z,7.77
2022-08-25T01:26:31.170Z,8.90
2022-08-25T01:29:17.998Z,6.10
2022-08-25T01:31:46.539Z,6.87
2022-08-25T01:34:15.599Z,0.70
2022-08-25T01:36:45.950Z,2.93
2022-08-25T01:39:15.546Z,9.47
2022-08-25T01:41:51.537Z,6.47
2022-08-25T01:44:20.315Z,11.90
2022-08-25T01:46:48.749Z,8.10
2022-08-25T01:49:17.143Z,1.27
2022-08-25T01:51:49.805Z,6.70
2022-08-25T01:54:18.246Z,8.80
2022-08-25T01:56:46.748Z,12.70
2022-08-25T01:59:17.000Z,4.50
2022-08-25T02:01:59.959Z,3.97
2022-08-25T02:04:31.439Z,6.80
2022-08-25T02:07:01.376Z,3.87
2022-08-25T02:09:29.873Z,5.97
2022-08-25T02:11:58.219Z,7.43
2022-08-25T02:14:28.286Z,3.60
2022-08-25T02:16:57.418Z,2.30
2022-08-25T02:19:26.439Z,3.37
2022-08-25T02:21:55.718Z,6.07
2022-08-25T02:24:25.445Z,3.03
2022-08-25T02:26:53.922Z,5.33
2022-08-25T02:29:22.468Z,3.83
2022-08-25T02:31:50.822Z,4.40
2022-08-25T02:34:19.208Z,2.17
2022-08-25T02:36:47.557Z,4.63
2022-08-25T02:39:15.954Z,9.93
2022-08-25T02:41:45.706Z,3.27
2022-08-25T02:44:14.224Z,2.73
2022-08-25T02:46:42.627Z,4.93
2022-08-25T02:49:11.326Z,4.90
2022-08-25T02:51:39.667Z,1.63
2022-08-25T02:54:08.153Z,2.03
2022-08-25T02:56:36.648Z,1.33
2022-08-25T02:59:06.486Z,1.57
2022-08-25T03:01:35.014Z,0.90
2022-08-25T03:04:04.018Z,1.13
2022-08-25T03:06:32.438Z,2.47
2022-08-25T03:09:01.416Z,1.73
2022-08-25T03:11:30.290Z,0.37
2022-08-25T03:13:59.094Z,0.30
2022-08-25T03:16:28.992Z,0.53
2022-08-25T03:18:57.673Z,2.20
2022-08-25T03:21:26.261Z,0.40
2022-08-25T03:23:54.736Z,1.33
2022-08-25T03:26:40.701Z,0.30
2022-08-25T03:29:09.259Z,0.90
2022-08-25T03:31:39.318Z,1.40
2022-08-25T03:34:07.746Z,1.00
2022-08-25T03:36:36.193Z,2.20
2022-08-25T03:39:04.973Z,0.60
2022-08-25T03:41:33.967Z,1.63
2022-08-25T03:44:03.400Z,0.83
2022-08-25T03:46:32.804Z,1.57
2022-08-25T03:49:04.132Z,2.30
2022-08-25T03:51:34.524Z,3.23
2022-08-25T03:54:03.265Z,8.80
2022-08-25T03:56:32.060Z,3.63
2022-08-25T03:59:00.618Z,2.27
2022-08-25T04:01:29.368Z,7.70
2022-08-25T04:03:57.917Z,2.17
2022-08-25T04:06:27.681Z,8.93
2022-08-25T04:08:56.232Z,6.60
2022-08-25T04:11:25.077Z,17.87
2022-08-25T04:13:53.953Z,5.73
2022-08-25T04:16:24.277Z,8.57
2022-08-25T04:18:54.888Z,13.23
2022-08-25T04:21:23.630Z,12.93
2022-08-25T04:23:54.341Z,7.50
2022-08-25T04:26:23.739Z,4.90
2022-08-25T04:28:52.772Z,5.27
2022-08-25T04:31:22.816Z,15.23
2022-08-25T04:33:51.212Z,13.53
2022-08-25T04:36:20.235Z,1.57
2022-08-25T04:38:49.643Z,1.77
2022-08-25T04:41:20.415Z,1.50
2022-08-25T04:43:48.770Z,4.63
2022-08-25T04:46:20.549Z,0.87
2022-08-25T04:48:49.647Z,2.17
2022-08-25T04:51:18.906Z,1.83
2022-08-25T04:53:47.466Z,1.37
2022-08-25T04:56:17.672Z,1.80
2022-08-25T04:58:47.792Z,2.13
2022-08-25T05:01:17.865Z,3.80
2022-08-25T05:03:46.485Z,2.47
2022-08-25T05:06:16.255Z,2.00
2022-08-25T05:08:45.950Z,1.60
2022-08-25T05:11:17.368Z,3.53
2022-08-25T05:13:51.239Z,2.43
2022-08-25T05:16:20.820Z,1.43
2022-08-25T05:18:49.440Z,2.30
2022-08-25T05:21:18.987Z,3.43
2022-08-25T05:23:47.706Z,1.17
2022-08-25T05:26:19.926Z,1.53
2022-08-25T05:28:50.832Z,0.70
2022-08-25T05:31:19.929Z,4.03
2022-08-25T05:33:48.393Z,1.53
2022-08-25T05:36:17.612Z,1.37
2022-08-25T05:38:46.106Z,1.60
2022-08-25T05:41:16.128Z,1.80
2022-08-25T05:43:45.442Z,2.57
2022-08-25T05:46:15.746Z,2.83
2022-08-25T05:48:44.211Z,2.87
2022-08-25T05:51:14.337Z,2.93
2022-08-25T05:53:43.624Z,2.40
2022-08-25T05:56:13.929Z,3.30
2022-08-25T05:58:42.898Z,3.40
2022-08-25T06:01:29.222Z,2.93
2022-08-25T06:04:00.087Z,0.90
2022-08-25T06:06:29.315Z,2.53
2022-08-25T06:08:57.685Z,2.00
2022-08-25T06:11:26.169Z,1.60
2022-08-25T06:13:54.649Z,1.77
2022-08-25T06:16:23.167Z,0.70
2022-08-25T06:18:51.848Z,0.40
2022-08-25T06:21:21.636Z,5.03
2022-08-25T06:23:50.331Z,2.77
2022-08-25T06:26:21.747Z,0.40
2022-08-25T06:28:50.776Z,0.43
2022-08-25T06:31:19.685Z,0.80
2022-08-25T06:33:49.518Z,0.60
2022-08-25T06:36:19.182Z,1.60
2022-08-25T06:38:49.350Z,4.83
2022-08-25T06:41:17.769Z,3.03
2022-08-25T06:43:49.915Z,1.60
2022-08-25T06:46:21.450Z,3.90
2022-08-25T06:48:50.216Z,2.27
2022-08-25T06:51:19.664Z,1.90
2022-08-25T06:53:50.451Z,4.73
2022-08-25T06:56:19.853Z,1.27
2022-08-25T06:58:48.409Z,3.03
2022-08-25T07:01:20.529Z,1.60
2022-08-25T07:03:49.771Z,2.43
2022-08-25T07:06:21.153Z,1.40
2022-08-25T07:08:50.983Z,2.93
2022-08-25T07:11:20.967Z,1.23
2022-08-25T07:13:50.087Z,1.73
2022-08-25T07:16:19.047Z,0.77
2022-08-25T07:18:48.726Z,2.07
2022-08-25T07:21:20.610Z,2.10
2022-08-25T07:23:52.848Z,2.87
2022-08-25T07:26:36.929Z,1.73
2022-08-25T07:29:07.212Z,2.93
2022-08-25T07:31:36.014Z,3.13
2022-08-25T07:34:23.564Z,1.90
2022-08-25T07:36:54.586Z,2.80
2022-08-25T07:39:25.696Z,2.83
2022-08-25T07:41:54.420Z,2.60
2022-08-25T07:44:24.536Z,3.00
2022-08-25T07:46:57.001Z,1.33
2022-08-25T07:49:26.106Z,2.57
2022-08-25T07:52:05.384Z,1.97
2022-08-25T07:54:38.034Z,3.07
2022-08-25T07:57:07.746Z,0.70
2022-08-25T07:59:39.602Z,2.03
2022-08-25T08:02:18.117Z,2.80
2022-08-25T08:04:48.818Z,2.57
2022-08-25T08:07:18.673Z,2.77
2022-08-25T08:09:53.101Z,1.90
2022-08-25T08:12:29.056Z,1.87
2022-08-25T08:14:57.521Z,2.20
2022-08-25T08:17:26.341Z,1.70
2022-08-25T08:19:54.874Z,2.13
2022-08-25T08:22:23.298Z,1.93
2022-08-25T08:24:54.865Z,2.63
2022-08-25T08:27:24.705Z,2.27
2022-08-25T08:29:53.849Z,2.97
2022-08-25T08:32:23.172Z,2.00
2022-08-25T08:35:00.150Z,1.67
2022-08-25T08:37:28.887Z,1.57
2022-08-25T08:40:03.338Z,1.93
2022-08-25T08:42:50.533Z,2.10
2022-08-25T08:45:26.676Z,1.77
2022-08-25T08:48:05.111Z,1.20
2022-08-25T08:50:41.403Z,2.07
2022-08-25T08:53:11.879Z,1.37
2022-08-25T08:55:45.345Z,2.23
2022-08-25T08:58:27.587Z,2.37
2022-08-25T09:00:58.407Z,2.10
2022-08-25T09:03:35.270Z,1.60
2022-08-25T09:06:07.275Z,2.17
2022-08-25T09:08:36.260Z,0.33
2022-08-25T09:11:11.932Z,2.20
2022-08-25T09:13:53.473Z,2.73
2022-08-25T09:16:44.262Z,2.13
2022-08-25T09:19:23.431Z,2.17
2022-08-25T09:21:56.786Z,2.60
2022-08-25T09:24:32.356Z,2.57
2022-08-25T09:27:08.380Z,2.07
2022-08-25T09:29:42.930Z,1.67
2022-08-25T09:32:12.493Z,1.90
2022-08-25T09:34:43.758Z,1.27
2022-08-25T09:37:16.591Z,2.37
2022-08-25T09:39:46.093Z,2.63
2022-08-25T09:42:19.898Z,2.03
2022-08-25T09:45:01.748Z,1.40
2022-08-25T09:47:34.583Z,1.30
2022-08-25T09:50:08.470Z,2.27
2022-08-25T09:52:53.424Z,0.80
2022-08-25T09:55:34.648Z,2.90
2022-08-25T09:58:16.400Z,2.20
2022-08-25T10:01:04.515Z,2.37
2022-08-25T10:03:36.565Z,0.30
2022-08-25T10:06:12.906Z,3.33
2022-08-25T10:08:57.142Z,2.07
2022-08-25T10:11:40.666Z,3.73
2022-08-25T10:14:18.215Z,2.10
2022-08-25T10:16:49.073Z,1.57
2022-08-25T10:19:32.067Z,1.87
2022-08-25T10:22:08.671Z,2.90
2022-08-25T10:24:43.990Z,1.83
2022-08-25T10:27:36.586Z,2.03
2022-08-25T10:30:18.165Z,2.80
2022-08-25T10:33:04.886Z,0.90
2022-08-25T10:35:36.673Z,2.07
2022-08-25T10:38:11.294Z,2.87
2022-08-25T10:40:46.228Z,2.53
2022-08-25T10:43:20.034Z,2.37
2022-08-25T10:46:03.587Z,2.70
2022-08-25T10:48:49.898Z,1.40
2022-08-25T10:51:37.480Z,1.93
2022-08-25T10:54:09.179Z,1.33
2022-08-25T10:56:41.883Z,2.67
2022-08-25T10:59:18.710Z,2.77
2022-08-25T11:01:56.690Z,2.50
2022-08-25T11:04:28.094Z,1.10
2022-08-25T11:06:59.548Z,2.73
2022-08-25T11:09:30.988Z,1.97
2022-08-25T11:12:01.416Z,1.00
2022-08-25T11:14:34.646Z,1.80
2022-08-25T11:17:06.796Z,1.57
2022-08-25T11:19:40.497Z,1.70
2022-08-25T11:22:29.315Z,3.13
2022-08-25T11:25:09.544Z,1.77
2022-08-25T11:27:50.761Z,1.67
2022-08-25T11:30:26.645Z,0.77
2022-08-25T11:33:22.193Z,2.07
2022-08-25T11:35:55.879Z,2.40
2022-08-25T11:38:58.147Z,2.47
2022-08-25T11:41:44.368Z,3.03
2022-08-25T11:44:28.713Z,2.43
2022-08-25T11:47:05.821Z,2.63
2022-08-25T11:49:51.195Z,2.10
2022-08-25T11:52:41.556Z,2.63
2022-08-25T11:55:13.411Z,0.97
2022-08-25T11:57:42.796Z,3.27
2022-08-25T12:00:15.800Z,2.83
2022-08-25T12:02:45.525Z,1.93
2022-08-25T12:05:43.657Z,1.87
2022-08-25T12:08:30.042Z,3.03
2022-08-25T12:11:09.925Z,3.00
2022-08-25T12:13:50.739Z,2.93
2022-08-25T12:16:57.135Z,2.40
2022-08-25T12:19:59.802Z,2.60
2022-08-25T12:22:54.008Z,1.47
2022-08-25T12:25:45.125Z,2.50
2022-08-25T12:28:23.058Z,2.20
2022-08-25T12:31:07.247Z,0.80
2022-08-25T12:33:51.476Z,1.67
2022-08-25T12:36:33.574Z,1.93
2022-08-25T12:39:35.090Z,2.30
2022-08-25T12:42:08.147Z,1.37
2022-08-25T12:44:47.235Z,2.63
2022-08-25T12:47:32.099Z,2.33
2022-08-25T12:50:26.185Z,2.27
2022-08-25T12:53:07.817Z,2.67
2022-08-25T12:55:42.532Z,3.33
2022-08-25T12:58:15.600Z,1.40
2022-08-25T13:01:00.364Z,2.90
2022-08-25T13:04:05.974Z,4.20
2022-08-25T13:06:47.055Z,2.23
2022-08-25T13:09:26.655Z,1.90
2022-08-25T13:12:12.585Z,0.83
2022-08-25T13:18:19.007Z,3.50
2022-08-25T13:20:49.431Z,3.33
2022-08-25T13:23:29.489Z,3.47
2022-08-25T13:26:11.864Z,3.90
2022-08-25T13:28:50.303Z,4.50
2022-08-25T13:31:25.254Z,3.83
2022-08-25T13:33:55.150Z,2.70
2022-08-25T13:36:51.975Z,1.70
2022-08-25T13:39:56.236Z,4.10
2022-08-25T13:42:29.110Z,3.43
2022-08-25T13:45:02.937Z,2.47
2022-08-25T13:47:45.148Z,6.07
2022-08-25T13:50:22.653Z,1.07
2022-08-25T13:52:57.111Z,4.97
2022-08-25T13:55:51.106Z,5.20
2022-08-25T13:58:38.740Z,5.37
2022-08-25T14:01:22.419Z,8.77
2022-08-25T14:04:27.514Z,4.20
2022-08-25T14:07:25.049Z,3.40
2022-08-25T14:09:55.213Z,3.43
2022-08-25T14:12:39.841Z,3.70
2022-08-25T14:15:33.466Z,5.50
2022-08-25T14:18:14.124Z,3.77
2022-08-25T14:20:48.469Z,2.87
2022-08-25T14:23:24.284Z,5.00
2022-08-25T14:26:00.728Z,4.37
2022-08-25T14:28:36.083Z,2.30
2022-08-25T14:31:26.621Z,5.50
2022-08-25T14:34:07.469Z,2.30
2022-08-25T14:36:47.765Z,6.77
2022-08-25T14:39:31.829Z,8.33
2022-08-25T14:42:01.031Z,4.50
2022-08-25T14:44:29.822Z,6.27
2022-08-25T14:47:02.221Z,5.53
2022-08-25T14:49:38.763Z,6.03
2022-08-25T14:52:14.264Z,5.83
2022-08-25T14:54:43.026Z,5.97
2022-08-25T14:57:11.930Z,2.90
2022-08-25T14:59:43.121Z,2.83
2022-08-25T15:02:21.685Z,12.93
2022-08-25T15:05:06.128Z,13.30
2022-08-25T15:08:00.442Z,11.90
2022-08-25T15:10:29.275Z,13.60
2022-08-25T15:12:59.134Z,13.60
2022-08-25T15:15:30.068Z,15.83
2022-08-25T15:18:02.094Z,11.23
2022-08-25T15:20:36.971Z,10.77
2022-08-25T15:23:05.766Z,13.83
2022-08-25T15:25:34.513Z,10.43
2022-08-25T15:28:05.484Z,18.10
2022-08-25T15:30:40.157Z,12.03
2022-08-25T15:33:10.480Z,15.73
2022-08-25T15:35:40.419Z,11.67
2022-08-25T15:38:09.788Z,9.50
2022-08-25T15:40:39.829Z,6.70
2022-08-25T15:43:08.426Z,12.97
2022-08-25T15:45:37.623Z,17.10
2022-08-25T15:48:06.957Z,17.80
2022-08-25T15:50:38.691Z,12.60
2022-08-25T15:53:10.701Z,9.17
2022-08-25T15:55:40.217Z,17.70
2022-08-25T15:58:09.055Z,15.73
2022-08-25T16:00:37.996Z,17.20
2022-08-25T16:03:08.090Z,19.93
2022-08-25T16:05:37.293Z,13.83
2022-08-25T16:08:06.059Z,16.47
2022-08-25T16:10:47.502Z,17.83
2022-08-25T16:13:16.284Z,15.40
2022-08-25T16:15:54.093Z,5.67
2022-08-25T16:18:26.222Z,15.57
2022-08-25T16:20:55.931Z,9.83
2022-08-25T16:23:24.633Z,13.37
2022-08-25T16:25:54.452Z,11.17
2022-08-25T16:28:24.432Z,8.53
2022-08-25T16:30:53.423Z,5.63
2022-08-25T16:33:22.483Z,10.00
2022-08-25T16:35:50.865Z,5.73
2022-08-25T16:38:19.296Z,9.57
2022-08-25T16:40:48.281Z,9.33
2022-08-25T16:43:18.005Z,6.33
2022-08-25T16:45:46.557Z,5.93
2022-08-25T16:48:14.987Z,9.30
2022-08-25T16:50:46.487Z,8.33
2022-08-25T16:53:34.368Z,10.67
2022-08-25T16:56:03.983Z,5.77
2022-08-25T16:58:34.939Z,4.87
2022-08-25T17:01:09.555Z,4.37
2022-08-25T17:03:38.938Z,9.60
2022-08-25T17:06:14.149Z,5.20
2022-08-25T17:08:43.809Z,7.40
2022-08-25T17:11:13.447Z,3.23
2022-08-25T17:13:44.487Z,7.60
2022-08-25T17:16:14.742Z,8.60
2022-08-25T17:18:43.236Z,7.57
2022-08-25T17:21:25.023Z,10.60
2022-08-25T17:23:54.030Z,8.00
2022-08-25T17:26:27.686Z,7.90
2022-08-25T17:28:59.433Z,7.63
2022-08-25T17:31:28.488Z,9.37
2022-08-25T17:33:58.533Z,7.73
2022-08-25T17:36:27.580Z,11.07
2022-08-25T17:38:57.002Z,7.83
2022-08-25T17:41:25.922Z,7.43
2022-08-25T17:43:54.318Z,7.73
2022-08-25T17:46:25.093Z,6.83
2022-08-25T17:48:53.629Z,8.80
2022-08-25T17:51:22.985Z,7.07
2022-08-25T17:53:52.659Z,8.63
2022-08-25T17:56:22.405Z,8.00
2022-08-25T17:58:52.249Z,6.53
2022-08-25T18:01:22.427Z,7.33
2022-08-25T18:03:52.750Z,8.43
2022-08-25T18:06:21.960Z,7.00
2022-08-25T18:08:52.999Z,6.63
2022-08-25T18:11:25.061Z,5.87
2022-08-25T18:13:53.798Z,2.53
2022-08-25T18:16:22.891Z,4.70
2022-08-25T18:18:53.203Z,1.97
2022-08-25T18:21:22.450Z,4.00
2022-08-25T18:23:50.931Z,6.03
2022-08-25T18:26:24.725Z,2.27
2022-08-25T18:28:53.863Z,4.30
2022-08-25T18:31:22.418Z,7.20
2022-08-25T18:33:52.170Z,6.47
2022-08-25T18:36:22.403Z,6.60
2022-08-25T18:39:11.039Z,5.33
2022-08-25T18:41:45.194Z,6.97
2022-08-25T18:44:15.506Z,6.60
2022-08-25T18:46:46.848Z,5.43
2022-08-25T18:49:17.288Z,5.90
2022-08-25T18:51:48.038Z,4.17
2022-08-25T18:54:23.100Z,7.47
2022-08-25T18:56:52.355Z,3.77
2022-08-25T18:59:23.644Z,4.83
2022-08-25T19:01:53.583Z,5.23
2022-08-25T19:04:28.346Z,6.60
2022-08-25T19:07:01.847Z,5.70
2022-08-25T19:09:31.391Z,7.23
2022-08-25T19:11:59.944Z,6.77
2022-08-25T19:14:29.033Z,5.47
2022-08-25T19:16:58.034Z,5.10
2022-08-25T19:19:26.639Z,6.73
2022-08-25T19:21:55.230Z,6.53
2022-08-25T19:24:25.243Z,3.77
2022-08-25T19:26:54.867Z,4.70
2022-08-25T19:29:23.942Z,7.90
2022-08-25T19:31:53.272Z,4.67
2022-08-25T19:34:23.439Z,3.27
2022-08-25T19:36:52.479Z,3.37
2022-08-25T19:39:20.978Z,3.10
2022-08-25T19:41:50.846Z,1.70
2022-08-25T19:44:19.401Z,3.70
2022-08-25T19:46:47.966Z,2.77
2022-08-25T19:49:21.539Z,1.17
2022-08-25T19:51:51.347Z,3.00
2022-08-25T19:54:21.866Z,2.57
2022-08-25T19:56:54.598Z,1.20
2022-08-25T19:59:24.830Z,2.57
2022-08-25T20:01:53.372Z,2.10
2022-08-25T20:04:24.153Z,2.17
2022-08-25T20:06:53.130Z,1.73
2022-08-25T20:09:39.629Z,3.60
2022-08-25T20:12:11.787Z,1.90
2022-08-25T20:14:41.325Z,1.83
2022-08-25T20:17:14.562Z,1.37
2022-08-25T20:19:54.261Z,2.63
2022-08-25T20:22:26.229Z,2.53
2022-08-25T20:24:56.121Z,1.40
2022-08-25T20:27:29.323Z,1.20
2022-08-25T20:29:57.800Z,1.43
2022-08-25T20:32:26.341Z,1.57
2022-08-25T20:34:57.757Z,1.23
2022-08-25T20:37:27.245Z,0.83
2022-08-25T20:39:56.023Z,1.67
2022-08-25T20:42:24.485Z,1.87
2022-08-25T20:44:54.975Z,2.50
2022-08-25T20:47:23.425Z,1.70
2022-08-25T20:49:51.807Z,1.10
2022-08-25T20:52:21.355Z,1.50
2022-08-25T20:54:51.142Z,1.17
2022-08-25T20:57:25.735Z,1.00
2022-08-25T20:59:56.234Z,1.93
2022-08-25T21:02:25.004Z,1.77
2022-08-25T21:04:53.686Z,1.03
2022-08-25T21:07:25.607Z,1.47
2022-08-25T21:09:54.178Z,1.90
2022-08-25T21:12:23.809Z,2.37
2022-08-25T21:14:52.792Z,1.40
2022-08-25T21:17:22.510Z,1.27
2022-08-25T21:19:50.935Z,1.07
2022-08-25T21:22:19.402Z,1.40
2022-08-25T21:24:47.857Z,2.57
2022-08-25T21:27:16.545Z,2.13
2022-08-25T21:29:54.725Z,0.70
2022-08-25T21:32:25.823Z,1.70
2022-08-25T21:34:56.173Z,2.00
2022-08-25T21:37:25.376Z,1.17
2022-08-25T21:39:54.357Z,1.03
2022-08-25T21:42:23.880Z,1.27
2022-08-25T21:44:53.713Z,2.13
2022-08-25T21:47:23.246Z,1.53
2022-08-25T21:49:53.200Z,1.30
2022-08-25T21:52:21.886Z,0.83
2022-08-25T21:54:50.338Z,0.97
2022-08-25T21:57:23.822Z,1.57
2022-08-25T21:59:52.336Z,2.50
2022-08-25T22:02:23.132Z,2.07
2022-08-25T22:04:54.753Z,2.20
2022-08-25T22:07:24.996Z,2.10
2022-08-25T22:09:53.708Z,1.43
2022-08-25T22:12:22.180Z,1.90
2022-08-25T22:14:51.363Z,1.90
2022-08-25T22:17:21.063Z,1.70
2022-08-25T22:19:54.391Z,1.87
2022-08-25T22:22:23.945Z,1.27
2022-08-25T22:24:53.058Z,1.33
2022-08-25T22:27:23.516Z,1.60
2022-08-25T22:29:52.166Z,1.20
2022-08-25T22:32:21.258Z,1.03
2022-08-25T22:34:50.127Z,1.87
2022-08-25T22:37:19.984Z,1.27
2022-08-25T22:39:48.632Z,1.50
2022-08-25T22:42:17.147Z,1.23
2022-08-25T22:44:45.552Z,0.93
2022-08-25T22:47:13.991Z,1.60
2022-08-25T22:49:43.316Z,1.27
2022-08-25T22:52:12.963Z,1.10
2022-08-25T22:54:43.285Z,0.93
2022-08-25T22:57:12.057Z,0.87
2022-08-25T22:59:40.612Z,1.70
2022-08-25T23:02:09.692Z,1.27
2022-08-25T23:04:41.469Z,1.17
2022-08-25T23:07:12.807Z,1.57
2022-08-25T23:09:44.123Z,1.10
2022-08-25T23:12:13.173Z,1.70
2022-08-25T23:14:42.214Z,1.00
2022-08-25T23:17:12.616Z,1.00
2022-08-25T23:19:40.977Z,1.67
2022-08-25T23:22:13.099Z,1.07
2022-08-25T23:24:46.701Z,1.37
2022-08-25T23:27:18.107Z,1.07
2022-08-25T23:29:48.271Z,0.83
2022-08-25T23:32:17.623Z,1.33
2022-08-25T23:34:47.381Z,2.43
2022-08-25T23:37:18.446Z,1.00
2022-08-25T23:39:49.972Z,0.50
2022-08-25T23:42:19.472Z,0.80
2022-08-25T23:44:48.168Z,1.00
2022-08-25T23:47:16.882Z,0.90
2022-08-25T23:49:45.292Z,0.73
2022-08-25T23:52:17.239Z,1.77
2022-08-25T23:54:46.078Z,0.87
2022-08-25T23:57:15.896Z,1.17
2022-08-25T23:59:47.095Z,0.77
